KGYR/GYR METAR and TAF weather

Enter ICAO airport designator
Station Type Date Time Source
KGYR METAR 2019/10/15 03:47 UTC NOAA

KGYR 150347Z 00000KT 10SM FEW080 25/11 A2987 RMK LAST


Station Type Date Time Source
KGYR Decoded METAR 2019/10/15 03:47 UTC NOAA

Goodyear Municipal, AZ, United States (KGYR) 33-25N 112-23W
Oct 14, 2019 - 11:47 PM EDT / 2019.10.15 0347 UTC
Wind: Calm:0
Visibility: 10 mile(s):0
Sky conditions: mostly clear
Temperature: 77 F (25 C)
Dew Point: 51 F (11 C)
Relative Humidity: 41%
Pressure (altimeter): 29.87 in. Hg (1011 hPa)
ob: KGYR 150347Z 00000KT 10SM FEW080 25/11 A2987 RMK LAST
cycle: 4

Station Type Date Time Source
KGYR TAF UTC NOAA

Error!

Example: see airport list